Time;durP1;ratioP1;P1;durP2;ratioP2;P2;SDS_P1;SDS_P2;PMS_P1;PMS_P2;Temp;Humidity;BMP_temperature;BMP_pressure;BME280_temperature;BME280_humidity;BME280_pressure;Samples;Min_cycle;Max_cycle;Signal;HPM_P1;HPM_P2
2023/01/20 00:03:12;;;;;;;8.60;2.30;;;;;;;;;;10409959;28;20079;-47
2023/01/20 00:08:12;;;;;;;4.35;2.17;;;;;;;;;;10402332;28;20034;-48
2023/01/20 00:13:13;;;;;;;5.88;2.78;;;;;;;;;;10403439;28;20018;-47
2023/01/20 00:18:14;;;;;;;7.60;2.63;;;;;;;;;;10404719;28;20021;-47
2023/01/20 00:23:15;;;;;;;2.72;1.80;;;;;;;;;;10405019;28;20109;-47
2023/01/20 00:28:16;;;;;;;3.67;2.15;;;;;;;;;;10406702;28;20034;-46
2023/01/20 00:33:16;;;;;;;4.55;2.30;;;;;;;;;;10407912;28;20022;-47
2023/01/20 00:38:17;;;;;;;9.90;2.63;;;;;;;;;;10400315;28;20037;-47
2023/01/20 00:43:17;;;;;;;3.55;2.17;;;;;;;;;;10406560;28;20036;-47
2023/01/20 00:48:18;;;;;;;7.57;2.03;;;;;;;;;;10403961;28;20044;-47
2023/01/20 00:53:19;;;;;;;5.80;2.35;;;;;;;;;;10407988;28;20033;-47
2023/01/20 00:58:19;;;;;;;9.95;2.65;;;;;;;;;;10407149;28;20388;-47
2023/01/20 01:03:21;;;;;;;3.42;1.88;;;;;;;;;;10401592;28;20492;-48
2023/01/20 01:08:22;;;;;;;3.50;2.35;;;;;;;;;;10406141;28;20483;-47
2023/01/20 01:13:22;;;;;;;6.15;3.10;;;;;;;;;;10401526;28;20028;-48
2023/01/20 01:18:23;;;;;;;3.80;1.98;;;;;;;;;;10402163;28;20026;-47
2023/01/20 01:23:23;;;;;;;3.47;1.85;;;;;;;;;;10406223;28;20031;-47
2023/01/20 01:28:24;;;;;;;4.75;1.92;;;;;;;;;;10402534;28;20041;-48
2023/01/20 01:33:24;;;;;;;4.00;2.05;;;;;;;;;;10406665;28;20056;-48
2023/01/20 01:38:26;;;;;;;4.15;1.70;;;;;;;;;;10406056;28;20042;-48
2023/01/20 01:43:31;;;;;;;2.22;1.52;;;;;;;;;;10406046;28;20488;-49
2023/01/20 01:48:44;;;;;;;2.80;1.75;;;;;;;;;;10406958;28;20028;-52
2023/01/20 01:53:52;;;;;;;4.88;1.88;;;;;;;;;;10389523;28;20041;-47
2023/01/20 01:58:57;;;;;;;3.47;1.55;;;;;;;;;;10406375;28;20070;-49
2023/01/20 02:04:11;;;;;;;4.03;1.88;;;;;;;;;;10389019;28;20037;-48
2023/01/20 02:09:12;;;;;;;3.75;1.85;;;;;;;;;;10381300;28;20033;-49
2023/01/20 02:14:24;;;;;;;2.67;1.63;;;;;;;;;;10388946;28;20034;-50
2023/01/20 02:20:11;;;;;;;2.72;1.60;;;;;;;;;;10414707;28;20455;-47
2023/01/20 02:25:29;;;;;;;5.50;2.20;;;;;;;;;;10404124;28;20049;-49
2023/01/20 02:31:11;;;;;;;2.27;1.50;;;;;;;;;;10409195;28;20614;-47
2023/01/20 02:36:21;;;;;;;3.85;1.85;;;;;;;;;;10412161;28;20463;-48
2023/01/20 02:41:27;;;;;;;1.92;1.25;;;;;;;;;;10394687;28;20029;-48
2023/01/20 02:46:48;;;;;;;2.35;1.48;;;;;;;;;;10412623;28;20021;-48
2023/01/20 02:51:58;;;;;;;4.50;1.67;;;;;;;;;;10396007;28;20032;-48
2023/01/20 02:57:02;;;;;;;3.83;1.67;;;;;;;;;;10413005;28;20581;-52
2023/01/20 03:02:14;;;;;;;2.33;1.42;;;;;;;;;;10412209;28;20095;-49
2023/01/20 03:07:17;;;;;;;2.47;1.65;;;;;;;;;;10413006;28;20037;-49
2023/01/20 03:12:23;;;;;;;2.28;1.42;;;;;;;;;;10393732;28;20465;-49
2023/01/20 03:17:23;;;;;;;1.60;1.50;;;;;;;;;;10394938;28;20029;-48
2023/01/20 03:22:24;;;;;;;2.15;1.48;;;;;;;;;;10412495;28;20033;-49
2023/01/20 03:27:25;;;;;;;1.40;1.30;;;;;;;;;;10393110;28;20050;-49
2023/01/20 03:32:27;;;;;;;2.72;1.80;;;;;;;;;;10394312;28;20477;-48
2023/01/20 03:37:28;;;;;;;2.08;1.42;;;;;;;;;;10412109;28;20077;-48
2023/01/20 03:42:38;;;;;;;2.75;1.60;;;;;;;;;;10411985;28;20060;-47
2023/01/20 03:48:19;;;;;;;2.33;1.27;;;;;;;;;;10388303;28;20029;-46
2023/01/20 03:53:44;;;;;;;2.40;1.35;;;;;;;;;;10408764;28;20070;-47
2023/01/20 03:58:50;;;;;;;1.60;1.48;;;;;;;;;;10410811;28;20037;-48
2023/01/20 04:03:53;;;;;;;1.70;1.30;;;;;;;;;;10392989;28;20041;-48
2023/01/20 04:08:59;;;;;;;2.10;1.25;;;;;;;;;;10393315;28;20068;-48
2023/01/20 04:14:01;;;;;;;1.70;1.55;;;;;;;;;;10392078;28;20053;-48
2023/01/20 04:19:01;;;;;;;1.45;1.35;;;;;;;;;;10409676;28;20026;-48
2023/01/20 04:24:23;;;;;;;1.13;1.00;;;;;;;;;;10409121;28;20029;-49
2023/01/20 04:29:23;;;;;;;3.17;1.30;;;;;;;;;;10409438;28;20116;-48
2023/01/20 04:34:24;;;;;;;1.38;1.27;;;;;;;;;;10409437;28;20029;-49
2023/01/20 04:39:24;;;;;;;2.83;1.20;;;;;;;;;;10399314;28;20046;-49
2023/01/20 04:44:25;;;;;;;1.20;1.10;;;;;;;;;;10408264;28;20473;-48
2023/01/20 04:49:26;;;;;;;4.30;1.52;;;;;;;;;;10407705;28;20476;-48
2023/01/20 04:54:26;;;;;;;1.50;1.00;;;;;;;;;;10408414;28;20498;-49
2023/01/20 04:59:27;;;;;;;1.77;1.10;;;;;;;;;;10408390;28;20407;-48
2023/01/20 05:04:27;;;;;;;1.60;1.42;;;;;;;;;;10407127;28;20040;-47
2023/01/20 05:09:28;;;;;;;1.30;1.17;;;;;;;;;;10408038;28;20025;-46
2023/01/20 05:14:28;;;;;;;1.80;1.20;;;;;;;;;;10406480;28;20385;-47
2023/01/20 05:19:29;;;;;;;1.55;1.35;;;;;;;;;;10401593;28;20495;-49
2023/01/20 05:24:29;;;;;;;1.65;1.50;;;;;;;;;;10407723;28;20026;-47
2023/01/20 05:29:30;;;;;;;1.88;1.30;;;;;;;;;;10398741;28;20078;-47
2023/01/20 05:34:31;;;;;;;1.65;1.40;;;;;;;;;;10407135;28;20032;-47
2023/01/20 05:39:31;;;;;;;1.08;0.98;;;;;;;;;;10406549;28;20045;-48
2023/01/20 05:44:32;;;;;;;1.23;1.13;;;;;;;;;;10406570;28;20025;-47
2023/01/20 05:49:32;;;;;;;3.78;1.40;;;;;;;;;;10406221;28;20025;-47
2023/01/20 05:54:33;;;;;;;1.52;1.33;;;;;;;;;;10406160;28;20111;-47
2023/01/20 05:59:34;;;;;;;2.47;1.10;;;;;;;;;;10406576;28;20130;-50
2023/01/20 06:04:34;;;;;;;2.92;1.27;;;;;;;;;;10405303;28;20209;-47
2023/01/20 06:09:35;;;;;;;1.17;1.08;;;;;;;;;;10403909;28;20033;-47
2023/01/20 06:14:35;;;;;;;3.72;1.00;;;;;;;;;;10400472;28;20013;-48
2023/01/20 06:19:36;;;;;;;1.20;1.10;;;;;;;;;;10405564;28;20041;-50
2023/01/20 06:24:37;;;;;;;1.20;1.10;;;;;;;;;;10405747;28;20128;-47
2023/01/20 06:29:37;;;;;;;3.70;1.13;;;;;;;;;;10406148;28;20469;-52
2023/01/20 06:34:38;;;;;;;7.03;1.27;;;;;;;;;;10402320;28;20057;-48
2023/01/20 06:39:39;;;;;;;3.55;1.58;;;;;;;;;;10400551;28;20029;-46
2023/01/20 06:44:39;;;;;;;3.67;1.77;;;;;;;;;;10399795;28;20030;-46
2023/01/20 06:49:40;;;;;;;4.82;1.90;;;;;;;;;;10403186;28;20044;-48
2023/01/20 06:54:40;;;;;;;5.50;2.33;;;;;;;;;;10395927;28;20059;-46
2023/01/20 06:59:41;;;;;;;3.22;1.77;;;;;;;;;;10398896;28;20063;-45
2023/01/20 07:04:42;;;;;;;2.20;1.63;;;;;;;;;;10407583;28;20393;-49
2023/01/20 07:09:42;;;;;;;6.07;2.10;;;;;;;;;;10372708;28;20373;-49
2023/01/20 07:14:43;;;;;;;7.07;1.55;;;;;;;;;;10403696;28;20084;-48
2023/01/20 07:19:43;;;;;;;6.22;1.70;;;;;;;;;;10412181;28;20029;-47
2023/01/20 07:24:44;;;;;;;4.03;2.05;;;;;;;;;;10410919;28;20112;-45
2023/01/20 07:29:44;;;;;;;11.00;2.78;;;;;;;;;;10404803;28;20065;-47
2023/01/20 07:34:45;;;;;;;2.75;2.15;;;;;;;;;;10411795;28;20029;-45
2023/01/20 07:40:01;;;;;;;6.32;2.83;;;;;;;;;;10378166;28;20053;-49
2023/01/20 07:45:03;;;;;;;5.43;2.17;;;;;;;;;;10398079;28;20041;-47
2023/01/20 07:50:04;;;;;;;5.65;1.92;;;;;;;;;;10410330;28;20045;-50
2023/01/20 07:55:05;;;;;;;4.50;1.58;;;;;;;;;;10406961;28;20032;-46
2023/01/20 08:00:07;;;;;;;4.65;2.40;;;;;;;;;;10408527;28;20025;-49
2023/01/20 08:05:08;;;;;;;5.00;2.55;;;;;;;;;;10389426;28;20049;-51
2023/01/20 08:10:09;;;;;;;8.38;1.98;;;;;;;;;;10403357;28;20046;-50
2023/01/20 08:15:10;;;;;;;7.20;2.13;;;;;;;;;;10408027;28;20026;-59
2023/01/20 08:20:11;;;;;;;2.30;1.70;;;;;;;;;;10408719;28;20488;-46
2023/01/20 08:25:11;;;;;;;2.85;1.83;;;;;;;;;;10408851;28;20033;-55
2023/01/20 08:30:12;;;;;;;2.83;1.75;;;;;;;;;;10409641;28;20018;-52
2023/01/20 08:35:13;;;;;;;7.05;3.08;;;;;;;;;;10409131;28;20408;-51
2023/01/20 08:40:14;;;;;;;6.03;2.20;;;;;;;;;;10408854;28;20068;-50
2023/01/20 08:45:14;;;;;;;8.00;2.10;;;;;;;;;;10407634;28;20472;-58
2023/01/20 08:50:15;;;;;;;12.88;2.65;;;;;;;;;;10407519;28;20026;-49
2023/01/20 08:55:16;;;;;;;3.47;2.13;;;;;;;;;;10399813;28;20013;-56
2023/01/20 09:00:17;;;;;;;6.68;2.15;;;;;;;;;;10407620;28;20137;-59
2023/01/20 09:05:20;;;;;;;2.75;2.00;;;;;;;;;;10406652;28;20021;-49
2023/01/20 09:10:20;;;;;;;9.35;2.10;;;;;;;;;;10398848;28;20189;-50
2023/01/20 09:15:21;;;;;;;4.65;2.10;;;;;;;;;;10406576;28;20505;-47
2023/01/20 09:20:23;;;;;;;5.15;1.83;;;;;;;;;;10406255;28;20048;-46
2023/01/20 09:25:24;;;;;;;10.73;3.28;;;;;;;;;;10406036;28;20449;-49
2023/01/20 09:30:24;;;;;;;8.85;1.80;;;;;;;;;;10399674;28;20033;-47
2023/01/20 09:35:25;;;;;;;2.85;2.00;;;;;;;;;;10406610;28;20054;-47
2023/01/20 09:46:15;;;;;;;10.48;2.45;;;;;;;;;;10391124;28;20037;-51
2023/01/20 09:56:53;;;;;;;3.10;1.98;;;;;;;;;;10396273;28;20037;-50
2023/01/20 10:02:00;;;;;;;4.57;2.13;;;;;;;;;;10402185;28;20029;-48
2023/01/20 10:07:30;;;;;;;4.65;2.00;;;;;;;;;;10404221;28;20056;-49
2023/01/20 10:12:50;;;;;;;5.43;2.03;;;;;;;;;;10398035;28;20025;-49
2023/01/20 10:18:09;;;;;;;2.97;2.05;;;;;;;;;;10400557;28;20106;-50
2023/01/20 10:23:32;;;;;;;;;;;;;;;;;;10373845;28;20108;-49
2023/01/20 10:28:40;;;;;;;2.88;1.88;;;;;;;;;;10405522;28;19917;-49
2023/01/20 10:33:44;;;;;;;4.55;2.22;;;;;;;;;;10405123;28;20408;-54
2023/01/20 10:38:51;;;;;;;5.07;2.00;;;;;;;;;;10410627;28;20053;-60
2023/01/20 10:43:52;;;;;;;4.20;2.00;;;;;;;;;;10403679;28;20040;-55
2023/01/20 10:49:44;;;;;;;4.28;2.20;;;;;;;;;;10412857;28;20025;-50
2023/01/20 10:55:12;;;;;;;7.32;1.92;;;;;;;;;;10400483;28;20125;-47
2023/01/20 11:00:26;;;;;;;3.88;2.63;;;;;;;;;;10411569;28;20610;-57
2023/01/20 11:05:32;;;;;;;4.20;1.73;;;;;;;;;;10411592;28;20056;-59
2023/01/20 11:10:32;;;;;;;7.80;2.05;;;;;;;;;;10395146;28;20032;-46
2023/01/20 11:15:37;;;;;;;4.25;1.70;;;;;;;;;;10393471;28;20022;-49
2023/01/20 11:21:01;;;;;;;4.53;2.00;;;;;;;;;;10394581;28;20087;-48
2023/01/20 11:26:19;;;;;;;4.70;1.77;;;;;;;;;;10411922;28;20029;-48
2023/01/20 11:31:32;;;;;;;3.80;2.37;;;;;;;;;;10411901;28;20044;-49
2023/01/20 11:36:33;;;;;;;2.40;1.98;;;;;;;;;;10411070;28;20038;-50
2023/01/20 11:41:34;;;;;;;3.28;2.10;;;;;;;;;;10412102;28;20365;-50
2023/01/20 11:46:36;;;;;;;4.75;2.15;;;;;;;;;;10407795;28;20026;-47
2023/01/20 11:51:52;;;;;;;4.55;2.17;;;;;;;;;;10410937;23;20782;-60
2023/01/20 11:57:06;;;;;;;7.70;2.25;;;;;;;;;;10390773;28;20030;-57
2023/01/20 12:02:07;;;;;;;2.15;1.75;;;;;;;;;;10360455;28;20132;-68
2023/01/20 12:07:33;;;;;;;3.40;1.95;;;;;;;;;;10380560;28;20026;-67
2023/01/20 12:12:38;;;;;;;2.13;1.88;;;;;;;;;;10368307;28;20392;-67
2023/01/20 12:18:06;;;;;;;3.58;2.33;;;;;;;;;;10369026;28;20166;-58
2023/01/20 12:23:20;;;;;;;4.50;2.05;;;;;;;;;;10348296;28;20037;-67
2023/01/20 12:28:50;;;;;;;4.60;1.85;;;;;;;;;;10365504;28;20022;-67
2023/01/20 12:33:58;;;;;;;5.13;1.77;;;;;;;;;;10354594;28;20123;-62
2023/01/20 12:39:19;;;;;;;7.88;1.83;;;;;;;;;;10369214;28;20281;-66
2023/01/20 12:44:44;;;;;;;3.45;1.83;;;;;;;;;;10356557;28;20099;-66
2023/01/20 12:49:52;;;;;;;2.65;2.00;;;;;;;;;;10348070;28;20374;-58
2023/01/20 12:54:59;;;;;;;2.57;1.87;;;;;;;;;;10359784;28;20057;-63
2023/01/20 13:00:15;;;;;;;3.97;2.10;;;;;;;;;;10361667;28;20073;-54
2023/01/20 13:06:07;;;;;;;7.88;1.88;;;;;;;;;;10361140;28;20379;-54
2023/01/20 13:11:40;;;;;;;2.15;1.95;;;;;;;;;;10362016;28;20018;-64
2023/01/20 13:16:57;;;;;;;3.70;2.15;;;;;;;;;;10348224;28;20041;-66
2023/01/20 13:22:21;;;;;;;3.88;1.90;;;;;;;;;;10347214;28;20512;-62
2023/01/20 13:27:36;;;;;;;6.05;2.03;;;;;;;;;;10357408;28;20199;-48
2023/01/20 13:32:47;;;;;;;2.83;2.13;;;;;;;;;;10349283;28;20033;-48
2023/01/20 13:37:57;;;;;;;2.78;1.85;;;;;;;;;;10364763;28;20092;-57
2023/01/20 13:42:57;;;;;;;2.17;1.85;;;;;;;;;;10346273;28;20021;-58
2023/01/20 13:48:09;;;;;;;2.88;2.00;;;;;;;;;;10361271;28;20058;-55
2023/01/20 13:53:19;;;;;;;4.65;1.90;;;;;;;;;;10343527;28;20042;-53
2023/01/20 13:58:32;;;;;;;2.55;2.13;;;;;;;;;;10362881;28;20054;-49
2023/01/20 14:03:35;;;;;;;4.78;1.88;;;;;;;;;;10361442;28;20068;-64
2023/01/20 14:08:48;;;;;;;3.05;1.80;;;;;;;;;;10366121;28;20029;-62
2023/01/20 14:14:00;;;;;;;4.30;1.73;;;;;;;;;;10368805;28;20026;-62
2023/01/20 14:19:32;;;;;;;3.50;1.95;;;;;;;;;;10367594;28;20026;-65
2023/01/20 14:24:49;;;;;;;2.33;2.10;;;;;;;;;;10358937;28;20030;-66
2023/01/20 14:29:52;;;;;;;3.80;2.15;;;;;;;;;;10370390;28;20037;-62
2023/01/20 14:34:53;;;;;;;5.28;2.17;;;;;;;;;;10365562;28;20220;-51
2023/01/20 14:39:57;;;;;;;3.55;1.73;;;;;;;;;;10367922;28;20213;-56
2023/01/20 14:44:57;;;;;;;3.55;1.60;;;;;;;;;;10353144;28;20025;-60
2023/01/20 14:50:00;;;;;;;4.95;2.00;;;;;;;;;;10370391;28;20386;-56
2023/01/20 14:55:00;;;;;;;2.28;1.80;;;;;;;;;;10371308;28;20389;-59
2023/01/20 15:00:31;;;;;;;3.50;1.90;;;;;;;;;;10371297;28;21428;-52
2023/01/20 15:05:34;;;;;;;3.33;1.67;;;;;;;;;;10353482;28;20524;-63
2023/01/20 15:10:35;;;;;;;2.22;2.00;;;;;;;;;;10352468;28;20022;-62
2023/01/20 15:15:36;;;;;;;1.92;1.50;;;;;;;;;;10341690;28;20385;-66
2023/01/20 15:20:40;;;;;;;1.98;1.77;;;;;;;;;;10370343;28;20320;-63
2023/01/20 15:25:41;;;;;;;1.90;1.65;;;;;;;;;;10351913;28;20041;-66
2023/01/20 15:30:42;;;;;;;4.43;1.70;;;;;;;;;;10369575;28;20418;-65
2023/01/20 15:35:42;;;;;;;3.72;1.98;;;;;;;;;;10366770;28;20278;-54
2023/01/20 15:40:43;;;;;;;3.78;2.00;;;;;;;;;;10374863;28;20037;-51
2023/01/20 15:45:44;;;;;;;5.18;1.85;;;;;;;;;;10366758;28;20044;-61
2023/01/20 15:50:45;;;;;;;4.50;2.00;;;;;;;;;;10368620;28;20053;-66
2023/01/20 15:55:50;;;;;;;3.92;1.73;;;;;;;;;;10369023;28;20026;-63
2023/01/20 16:00:52;;;;;;;4.35;1.65;;;;;;;;;;10368285;28;20091;-63
2023/01/20 16:05:54;;;;;;;5.07;2.03;;;;;;;;;;10367879;28;20037;-58
2023/01/20 16:10:55;;;;;;;9.93;1.90;;;;;;;;;;10369145;28;20091;-53
2023/01/20 16:15:56;;;;;;;6.47;1.75;;;;;;;;;;10367900;28;20034;-60
2023/01/20 16:20:56;;;;;;;3.53;1.60;;;;;;;;;;10350009;28;20442;-50
2023/01/20 16:25:57;;;;;;;5.38;2.13;;;;;;;;;;10367779;28;20037;-46
2023/01/20 16:30:59;;;;;;;5.90;2.42;;;;;;;;;;10348926;28;20030;-50
2023/01/20 16:35:59;;;;;;;2.50;1.70;;;;;;;;;;10365847;28;20022;-47
2023/01/20 16:41:13;;;;;;;4.22;2.05;;;;;;;;;;10367303;28;20026;-47
2023/01/20 16:46:20;;;;;;;7.60;2.00;;;;;;;;;;10367046;28;20018;-47
2023/01/20 16:51:24;;;;;;;5.05;2.20;;;;;;;;;;10367823;28;20080;-49
2023/01/20 16:56:29;;;;;;;5.05;2.15;;;;;;;;;;10364022;28;20092;-50
2023/01/20 17:01:29;;;;;;;1.98;1.75;;;;;;;;;;10366107;28;20257;-54
2023/01/20 17:06:33;;;;;;;2.88;1.90;;;;;;;;;;10365852;28;20266;-46
2023/01/20 17:11:36;;;;;;;6.00;2.25;;;;;;;;;;10367019;28;20041;-47
2023/01/20 17:16:38;;;;;;;3.63;2.13;;;;;;;;;;10365473;28;20042;-47
2023/01/20 17:21:38;;;;;;;6.45;2.53;;;;;;;;;;10363586;28;20037;-64
2023/01/20 17:26:39;;;;;;;7.85;2.60;;;;;;;;;;10364117;28;20370;-64
2023/01/20 17:31:41;;;;;;;4.50;2.05;;;;;;;;;;10365133;28;20026;-63
2023/01/20 17:36:42;;;;;;;3.05;1.90;;;;;;;;;;10365145;28;20037;-65
2023/01/20 17:41:42;;;;;;;2.92;2.20;;;;;;;;;;10365590;28;20477;-51
2023/01/20 17:46:43;;;;;;;3.28;2.53;;;;;;;;;;10360851;28;20505;-47
2023/01/20 17:51:44;;;;;;;4.20;2.45;;;;;;;;;;10360932;28;20042;-59
2023/01/20 17:56:46;;;;;;;5.95;2.45;;;;;;;;;;10361278;28;20041;-51
2023/01/20 18:01:51;;;;;;;5.55;2.58;;;;;;;;;;10363834;28;20025;-53
2023/01/20 18:06:51;;;;;;;6.75;2.80;;;;;;;;;;10362534;28;20476;-56
2023/01/20 18:11:52;;;;;;;2.75;2.20;;;;;;;;;;10362231;28;20026;-50
2023/01/20 18:16:53;;;;;;;4.32;2.50;;;;;;;;;;10363327;28;20034;-52
2023/01/20 18:21:53;;;;;;;4.80;2.45;;;;;;;;;;10365009;28;20059;-50
2023/01/20 18:26:54;;;;;;;4.05;2.50;;;;;;;;;;10364510;28;20386;-56
2023/01/20 18:31:56;;;;;;;4.40;2.42;;;;;;;;;;10363659;28;20048;-51
2023/01/20 18:36:57;;;;;;;36.67;5.18;;;;;;;;;;10362587;28;20041;-44
2023/01/20 18:41:58;;;;;;;5.57;3.20;;;;;;;;;;10364472;28;20053;-53
2023/01/20 18:46:58;;;;;;;7.78;3.42;;;;;;;;;;10363947;28;20029;-46
2023/01/20 18:51:59;;;;;;;4.80;3.30;;;;;;;;;;10371347;28;20429;-46
2023/01/20 18:57:00;;;;;;;4.88;3.15;;;;;;;;;;10365057;28;20029;-45
2023/01/20 19:02:00;;;;;;;6.13;3.25;;;;;;;;;;10380970;28;20033;-45
2023/01/20 19:07:01;;;;;;;7.97;4.03;;;;;;;;;;10370001;28;20033;-45
2023/01/20 19:12:01;;;;;;;5.10;3.38;;;;;;;;;;10369822;28;20058;-45
2023/01/20 19:17:02;;;;;;;5.30;3.55;;;;;;;;;;10369128;28;20393;-45
2023/01/20 19:22:03;;;;;;;9.52;4.03;;;;;;;;;;10366412;28;20036;-51
2023/01/20 19:27:04;;;;;;;10.05;3.88;;;;;;;;;;10358428;28;20037;-57
2023/01/20 19:32:04;;;;;;;17.25;4.57;;;;;;;;;;10365869;28;20030;-63
2023/01/20 19:37:05;;;;;;;24.00;4.50;;;;;;;;;;10367356;28;20045;-53
2023/01/20 19:42:05;;;;;;;11.52;4.38;;;;;;;;;;10368743;28;20385;-66
2023/01/20 19:47:06;;;;;;;9.38;4.13;;;;;;;;;;10370871;28;20513;-45
2023/01/20 19:52:06;;;;;;;8.15;4.03;;;;;;;;;;10367780;28;20643;-46
2023/01/20 19:57:07;;;;;;;6.30;3.80;;;;;;;;;;10367947;28;20139;-48
2023/01/20 20:02:11;;;;;;;8.50;3.33;;;;;;;;;;10365591;28;20382;-67
2023/01/20 20:07:11;;;;;;;16.73;4.43;;;;;;;;;;10368350;28;20030;-67
2023/01/20 20:12:12;;;;;;;14.30;3.90;;;;;;;;;;10364955;28;20036;-55
2023/01/20 20:17:13;;;;;;;8.07;4.25;;;;;;;;;;10364749;28;20037;-68
2023/01/20 20:22:13;;;;;;;13.63;4.00;;;;;;;;;;10367884;28;20065;-67
2023/01/20 20:27:14;;;;;;;17.98;4.47;;;;;;;;;;10360505;28;20030;-63
2023/01/20 20:32:15;;;;;;;17.23;4.53;;;;;;;;;;10363644;28;20457;-61
2023/01/20 20:37:16;;;;;;;14.10;4.78;;;;;;;;;;10362838;28;20032;-63
2023/01/20 20:42:16;;;;;;;8.77;4.30;;;;;;;;;;10365656;28;20038;-63
2023/01/20 20:47:17;;;;;;;11.95;4.72;;;;;;;;;;10367280;28;20120;-61
2023/01/20 20:52:18;;;;;;;10.07;4.25;;;;;;;;;;10367027;28;20524;-59
2023/01/20 20:57:18;;;;;;;9.05;4.68;;;;;;;;;;10367245;28;20030;-48
2023/01/20 21:02:19;;;;;;;10.63;4.93;;;;;;;;;;10367021;28;20026;-64
2023/01/20 21:07:20;;;;;;;10.82;4.85;;;;;;;;;;10366424;28;20022;-64
2023/01/20 21:12:20;;;;;;;15.15;5.07;;;;;;;;;;10356883;28;20053;-61
2023/01/20 21:17:21;;;;;;;9.23;4.55;;;;;;;;;;10365638;28;20029;-60
2023/01/20 21:22:21;;;;;;;11.52;4.47;;;;;;;;;;10365867;28;20029;-61
2023/01/20 21:27:22;;;;;;;8.32;4.90;;;;;;;;;;10366428;28;20036;-61
2023/01/20 21:32:23;;;;;;;16.17;4.53;;;;;;;;;;10364778;28;20030;-57
2023/01/20 21:37:23;;;;;;;10.00;4.38;;;;;;;;;;10363898;28;20092;-59
2023/01/20 21:42:24;;;;;;;5.93;4.05;;;;;;;;;;10363937;28;20030;-61
2023/01/20 21:47:24;;;;;;;6.38;4.30;;;;;;;;;;10361664;28;20037;-57
2023/01/20 21:52:40;;;;;;;8.23;4.57;;;;;;;;;;10364251;28;20049;-55
2023/01/20 21:57:42;;;;;;;9.00;4.32;;;;;;;;;;10344531;28;20061;-59
2023/01/20 22:02:44;;;;;;;7.82;4.25;;;;;;;;;;10346387;28;20545;-58
2023/01/20 22:07:46;;;;;;;8.88;3.88;;;;;;;;;;10362927;28;20454;-53
2023/01/20 22:12:47;;;;;;;8.10;4.53;;;;;;;;;;10361926;28;20138;-57
2023/01/20 22:17:47;;;;;;;8.35;4.45;;;;;;;;;;10362913;28;20084;-61
2023/01/20 22:22:48;;;;;;;8.85;5.32;;;;;;;;;;10360189;28;20026;-58
2023/01/20 22:27:49;;;;;;;10.25;4.40;;;;;;;;;;10358015;28;20045;-63
2023/01/20 22:32:49;;;;;;;5.82;3.80;;;;;;;;;;10360634;28;20087;-53
2023/01/20 22:37:50;;;;;;;9.98;4.03;;;;;;;;;;10333162;28;20029;-51
2023/01/20 22:42:50;;;;;;;5.80;3.75;;;;;;;;;;10371405;28;20034;-45
2023/01/20 22:47:51;;;;;;;6.93;3.92;;;;;;;;;;10368617;28;20037;-45
2023/01/20 22:52:51;;;;;;;8.48;4.25;;;;;;;;;;10371161;28;20049;-57
2023/01/20 22:57:52;;;;;;;5.60;3.22;;;;;;;;;;10368951;28;20080;-56
2023/01/20 23:02:53;;;;;;;7.65;3.53;;;;;;;;;;10368968;28;20033;-45
2023/01/20 23:07:53;;;;;;;8.60;3.72;;;;;;;;;;10370959;28;20481;-66
2023/01/20 23:12:54;;;;;;;8.88;3.90;;;;;;;;;;10368731;28;20045;-46
2023/01/20 23:17:54;;;;;;;5.47;3.70;;;;;;;;;;10351509;28;20489;-57
2023/01/20 23:22:55;;;;;;;5.88;4.20;;;;;;;;;;10377262;28;20037;-62
2023/01/20 23:27:56;;;;;;;6.13;3.60;;;;;;;;;;10369424;28;20417;-64
2023/01/20 23:32:57;;;;;;;4.72;3.30;;;;;;;;;;10372634;28;20092;-63
2023/01/20 23:37:57;;;;;;;8.38;3.25;;;;;;;;;;10369423;28;20415;-67
2023/01/20 23:42:58;;;;;;;6.88;3.90;;;;;;;;;;10369155;28;20393;-60
2023/01/20 23:47:58;;;;;;;8.02;3.65;;;;;;;;;;10368873;28;20476;-65
2023/01/20 23:52:59;;;;;;;5.32;3.58;;;;;;;;;;10367897;28;20038;-67
2023/01/20 23:57:59;;;;;;;7.38;4.03;;;;;;;;;;10368304;28;20044;-61
